createdAt,value
2018-12-14T00:02:23.247Z,2.20
2018-12-14T00:04:49.946Z,1.97
2018-12-14T00:07:16.638Z,2.50
2018-12-14T00:09:43.488Z,2.30
2018-12-14T00:12:10.237Z,2.30
2018-12-14T00:14:36.949Z,2.13
2018-12-14T00:17:03.761Z,2.07
2018-12-14T00:19:31.224Z,1.73
2018-12-14T00:21:58.698Z,2.03
2018-12-14T00:24:25.423Z,2.07
2018-12-14T00:26:53.021Z,1.90
2018-12-14T00:29:19.793Z,1.83
2018-12-14T00:31:46.552Z,2.10
2018-12-14T00:34:14.015Z,2.20
2018-12-14T00:36:40.994Z,2.40
2018-12-14T00:39:07.965Z,2.33
2018-12-14T00:41:35.037Z,2.50
2018-12-14T00:44:02.739Z,2.00
2018-12-14T00:46:29.674Z,2.57
2018-12-14T00:48:57.149Z,2.33
2018-12-14T00:51:24.671Z,2.60
2018-12-14T00:53:51.570Z,2.63
2018-12-14T00:56:18.358Z,2.53
2018-12-14T00:58:45.155Z,2.80
2018-12-14T01:01:11.892Z,2.70
2018-12-14T01:03:42.164Z,2.40
2018-12-14T01:06:09.027Z,2.60
2018-12-14T01:08:35.962Z,2.77
2018-12-14T01:11:02.664Z,2.90
2018-12-14T01:13:29.411Z,2.60
2018-12-14T01:15:56.248Z,2.73
2018-12-14T01:18:22.975Z,2.57
2018-12-14T01:20:50.473Z,2.60
2018-12-14T01:23:17.272Z,2.67
2018-12-14T01:25:44.243Z,2.83
2018-12-14T01:28:10.968Z,2.60
2018-12-14T01:30:37.827Z,2.67
2018-12-14T01:33:05.544Z,2.60
2018-12-14T01:35:32.267Z,2.50
2018-12-14T01:37:59.815Z,2.60
2018-12-14T01:40:28.597Z,2.47
2018-12-14T01:42:55.292Z,2.27
2018-12-14T01:45:22.027Z,2.70
2018-12-14T01:47:49.588Z,3.00
2018-12-14T01:50:16.311Z,3.00
2018-12-14T01:52:43.233Z,2.90
2018-12-14T01:55:10.015Z,2.40
2018-12-14T01:57:36.781Z,2.67
2018-12-14T02:00:03.620Z,2.50
2018-12-14T02:02:32.175Z,2.53
2018-12-14T02:04:58.974Z,2.83
2018-12-14T02:07:25.710Z,3.03
2018-12-14T02:09:52.624Z,2.40
2018-12-14T02:12:19.392Z,2.60
2018-12-14T02:14:46.403Z,2.30
2018-12-14T02:17:13.344Z,2.90
2018-12-14T02:19:40.182Z,2.87
2018-12-14T02:22:07.004Z,3.50
2018-12-14T02:24:33.892Z,2.63
2018-12-14T02:27:00.585Z,3.13
2018-12-14T02:29:27.392Z,2.53
2018-12-14T02:31:54.131Z,2.60
2018-12-14T02:34:20.866Z,2.50
2018-12-14T02:36:48.418Z,2.73
2018-12-14T02:39:15.213Z,2.47
2018-12-14T02:41:42.138Z,2.60
2018-12-14T02:44:09.117Z,2.80
2018-12-14T02:46:36.767Z,2.70
2018-12-14T02:49:03.768Z,2.50
2018-12-14T02:51:30.666Z,2.60
2018-12-14T02:53:57.400Z,3.23
2018-12-14T02:56:24.311Z,2.90
2018-12-14T02:58:51.137Z,2.67
2018-12-14T03:01:18.105Z,2.70
2018-12-14T03:03:45.680Z,2.50
2018-12-14T03:06:13.220Z,2.63
2018-12-14T03:08:39.939Z,2.87
2018-12-14T03:11:07.052Z,2.50
2018-12-14T03:13:33.861Z,2.33
2018-12-14T03:16:02.022Z,2.63
2018-12-14T03:18:27.606Z,2.00
2018-12-14T03:20:54.469Z,2.43
2018-12-14T03:23:21.355Z,2.70
2018-12-14T03:25:48.932Z,2.43
2018-12-14T03:28:15.663Z,2.70
2018-12-14T03:30:42.370Z,2.70
2018-12-14T03:33:09.121Z,2.60
2018-12-14T03:35:36.605Z,2.37
2018-12-14T03:38:03.482Z,2.30
2018-12-14T03:40:30.319Z,2.80
2018-12-14T03:42:57.045Z,2.63
2018-12-14T03:45:23.821Z,2.50
2018-12-14T03:47:50.557Z,2.80
2018-12-14T03:50:17.287Z,2.30
2018-12-14T03:52:44.789Z,2.23
2018-12-14T03:55:11.574Z,2.37
2018-12-14T03:57:38.290Z,2.57
2018-12-14T04:00:05.184Z,2.27
2018-12-14T04:02:31.915Z,2.70
2018-12-14T04:04:58.612Z,2.60
2018-12-14T04:07:26.113Z,2.67
2018-12-14T04:09:52.823Z,2.80
2018-12-14T04:12:19.566Z,2.80
2018-12-14T04:14:46.376Z,2.80
2018-12-14T04:17:13.879Z,2.67
2018-12-14T04:19:40.911Z,2.80
2018-12-14T04:22:07.718Z,2.73
2018-12-14T04:24:35.190Z,2.60
2018-12-14T04:27:01.948Z,2.50
2018-12-14T04:29:28.676Z,2.60
2018-12-14T04:31:55.975Z,2.50
2018-12-14T04:34:22.761Z,2.50
2018-12-14T04:36:50.730Z,5.27
2018-12-14T04:39:18.336Z,3.07
2018-12-14T04:41:46.005Z,2.90
2018-12-14T04:44:12.797Z,2.70
2018-12-14T04:46:39.672Z,2.70
2018-12-14T04:49:06.529Z,2.70
2018-12-14T04:51:33.252Z,2.77
2018-12-14T04:54:00.033Z,2.80
2018-12-14T04:56:27.043Z,2.87
2018-12-14T04:58:53.826Z,2.90
2018-12-14T05:01:20.626Z,2.77
2018-12-14T05:03:47.421Z,2.60
2018-12-14T05:06:16.632Z,2.63
2018-12-14T05:08:43.404Z,2.73
2018-12-14T05:11:10.242Z,2.80
2018-12-14T05:13:36.977Z,3.07
2018-12-14T05:16:03.792Z,3.00
2018-12-14T05:18:31.294Z,2.97
2018-12-14T05:20:58.006Z,2.67
2018-12-14T05:23:24.890Z,2.50
2018-12-14T05:25:52.404Z,2.87
2018-12-14T05:28:20.111Z,3.00
2018-12-14T05:30:46.840Z,3.27
2018-12-14T05:33:14.564Z,3.03
2018-12-14T05:35:41.262Z,2.63
2018-12-14T05:38:08.048Z,2.53
2018-12-14T05:40:35.823Z,2.60
2018-12-14T05:43:02.783Z,2.90
2018-12-14T05:45:30.188Z,3.20
2018-12-14T05:47:56.997Z,3.33
2018-12-14T05:50:24.540Z,2.90
2018-12-14T05:52:51.282Z,2.40
2018-12-14T05:55:17.983Z,2.83
2018-12-14T05:57:45.414Z,2.83
2018-12-14T06:00:12.234Z,2.83
2018-12-14T06:02:38.944Z,2.90
2018-12-14T06:05:05.697Z,3.10
2018-12-14T06:07:32.485Z,3.07
2018-12-14T06:09:59.170Z,2.90
2018-12-14T06:12:25.904Z,2.60
2018-12-14T06:14:52.624Z,2.87
2018-12-14T06:17:19.291Z,3.40
2018-12-14T06:19:45.973Z,2.83
2018-12-14T06:22:12.736Z,3.07
2018-12-14T06:24:39.422Z,3.20
2018-12-14T06:27:06.118Z,3.10
2018-12-14T06:29:32.844Z,3.40
2018-12-14T06:31:59.536Z,3.10
2018-12-14T06:34:26.219Z,2.50
2018-12-14T06:36:53.001Z,3.00
2018-12-14T06:39:19.718Z,2.93
2018-12-14T06:41:46.583Z,2.73
2018-12-14T06:44:13.567Z,2.80
2018-12-14T06:46:40.277Z,2.60
2018-12-14T06:49:15.016Z,2.73
2018-12-14T06:51:41.743Z,2.77
2018-12-14T06:54:08.424Z,2.50
2018-12-14T06:56:36.170Z,2.47
2018-12-14T06:59:03.030Z,2.80
2018-12-14T07:01:30.563Z,2.30
2018-12-14T07:03:58.998Z,2.50
2018-12-14T07:06:25.688Z,2.20
2018-12-14T07:08:52.364Z,2.60
2018-12-14T07:11:19.106Z,2.80
2018-12-14T07:13:45.799Z,2.40
2018-12-14T07:16:13.443Z,2.70
2018-12-14T07:18:41.058Z,2.47
2018-12-14T07:21:07.824Z,2.57
2018-12-14T07:23:34.470Z,2.57
2018-12-14T07:26:01.939Z,2.63
2018-12-14T07:28:30.369Z,2.53
2018-12-14T07:30:57.234Z,2.80
2018-12-14T07:33:23.983Z,2.40
2018-12-14T07:35:50.670Z,2.70
2018-12-14T07:38:17.391Z,2.50
2018-12-14T07:40:44.100Z,2.03
2018-12-14T07:43:10.806Z,2.70
2018-12-14T07:45:37.508Z,2.33
2018-12-14T07:48:04.225Z,2.23
2018-12-14T07:50:31.643Z,2.30
2018-12-14T07:52:58.382Z,2.07
2018-12-14T07:55:25.083Z,2.60
2018-12-14T07:57:51.841Z,2.33
2018-12-14T08:00:18.602Z,2.17
2018-12-14T08:02:45.310Z,2.13
2018-12-14T08:05:11.983Z,2.10
2018-12-14T08:07:38.735Z,2.13
2018-12-14T08:10:05.474Z,2.20
2018-12-14T08:12:32.147Z,2.33
2018-12-14T08:14:59.620Z,2.43
2018-12-14T08:17:26.344Z,2.00
2018-12-14T08:19:53.802Z,2.30
2018-12-14T08:22:21.263Z,2.27
2018-12-14T08:24:48.675Z,2.03
2018-12-14T08:27:15.377Z,2.13
2018-12-14T08:29:42.133Z,2.10
2018-12-14T08:32:08.803Z,2.00
2018-12-14T08:34:35.470Z,1.77
2018-12-14T08:37:03.003Z,2.00
2018-12-14T08:39:29.710Z,1.83
2018-12-14T08:41:56.440Z,2.00
2018-12-14T08:44:23.174Z,1.73
2018-12-14T08:46:49.853Z,1.83
2018-12-14T08:49:17.241Z,1.60
2018-12-14T08:51:44.704Z,1.90
2018-12-14T08:54:11.408Z,1.80
2018-12-14T08:56:39.101Z,1.70
2018-12-14T08:59:05.901Z,1.73
2018-12-14T09:01:32.560Z,1.53
2018-12-14T09:03:59.309Z,1.90
2018-12-14T09:06:26.077Z,1.77
2018-12-14T09:08:52.744Z,1.80
2018-12-14T09:11:19.390Z,1.83
2018-12-14T09:13:47.995Z,1.30
2018-12-14T09:16:14.641Z,1.20
2018-12-14T09:18:41.359Z,1.30
2018-12-14T09:21:08.152Z,1.30
2018-12-14T09:23:35.594Z,1.37
2018-12-14T09:26:02.323Z,1.10
2018-12-14T09:28:29.152Z,1.40
2018-12-14T09:30:56.115Z,1.03
2018-12-14T09:33:22.815Z,1.00
2018-12-14T09:35:49.533Z,1.17
2018-12-14T09:38:18.954Z,1.00
2018-12-14T09:40:46.117Z,1.30
2018-12-14T09:43:13.121Z,1.53
2018-12-14T09:45:40.546Z,1.30
2018-12-14T09:48:07.220Z,1.17
2018-12-14T09:50:34.700Z,1.60
2018-12-14T09:53:01.389Z,1.57
2018-12-14T09:55:28.096Z,1.67
2018-12-14T09:57:55.464Z,1.50
2018-12-14T10:00:22.150Z,1.40
2018-12-14T10:02:49.606Z,1.50
2018-12-14T10:05:17.126Z,1.90
2018-12-14T10:07:46.812Z,1.53
2018-12-14T10:10:10.548Z,1.53
2018-12-14T10:12:38.139Z,1.67
2018-12-14T10:15:04.888Z,1.33
2018-12-14T10:17:31.542Z,1.83
2018-12-14T10:19:58.338Z,1.67
2018-12-14T10:22:25.029Z,1.53
2018-12-14T10:24:53.364Z,1.50
2018-12-14T10:27:20.265Z,1.50
2018-12-14T10:29:47.730Z,1.70
2018-12-14T10:32:15.221Z,1.60
2018-12-14T10:34:41.946Z,1.77
2018-12-14T10:37:11.605Z,1.60
2018-12-14T10:39:39.216Z,1.67
2018-12-14T10:42:05.917Z,2.00
2018-12-14T10:44:32.580Z,1.60
2018-12-14T10:47:00.064Z,1.67
2018-12-14T10:49:26.797Z,1.90
2018-12-14T10:51:53.494Z,1.80
2018-12-14T10:54:20.242Z,1.80
2018-12-14T10:56:46.958Z,1.80
2018-12-14T10:59:13.737Z,1.57
2018-12-14T11:01:47.229Z,1.63
2018-12-14T11:04:14.726Z,1.70
2018-12-14T11:06:41.463Z,1.63
2018-12-14T11:09:08.237Z,1.70
2018-12-14T11:11:34.988Z,1.70
2018-12-14T11:14:01.687Z,1.50
2018-12-14T11:16:28.363Z,1.50
2018-12-14T11:18:55.064Z,1.70
2018-12-14T11:21:21.728Z,1.70
2018-12-14T11:23:48.435Z,1.30
2018-12-14T11:26:15.199Z,1.50
2018-12-14T11:28:41.896Z,1.50
2018-12-14T11:31:09.330Z,1.70
2018-12-14T11:33:36.037Z,1.50
2018-12-14T11:36:02.762Z,1.58
2018-12-14T11:38:29.506Z,1.57
2018-12-14T11:40:56.185Z,1.30
2018-12-14T11:43:23.144Z,1.27
2018-12-14T11:45:49.868Z,1.20
2018-12-14T11:48:16.537Z,1.40
2018-12-14T11:50:43.945Z,1.30
2018-12-14T11:53:10.702Z,1.37
2018-12-14T11:55:37.418Z,1.50
2018-12-14T11:58:04.142Z,1.00
2018-12-14T12:00:30.957Z,1.40
2018-12-14T12:02:58.351Z,0.90
2018-12-14T12:05:25.049Z,1.20
2018-12-14T12:07:53.360Z,1.10
2018-12-14T12:10:20.080Z,1.50
2018-12-14T12:12:47.568Z,1.20
2018-12-14T12:15:14.314Z,1.13
2018-12-14T12:17:41.002Z,1.30
2018-12-14T12:20:08.499Z,1.20
2018-12-14T12:22:35.229Z,1.50
2018-12-14T12:25:02.214Z,1.20
2018-12-14T12:27:28.874Z,1.20
2018-12-14T12:29:55.618Z,1.10
2018-12-14T12:32:23.082Z,1.23
2018-12-14T12:34:50.484Z,1.30
2018-12-14T12:37:17.170Z,1.10
2018-12-14T12:39:44.054Z,1.20
2018-12-14T12:42:11.087Z,1.50
2018-12-14T12:44:38.054Z,1.43
2018-12-14T12:47:04.748Z,1.13
2018-12-14T12:49:32.248Z,1.00
2018-12-14T12:51:59.864Z,1.27
2018-12-14T12:54:26.884Z,1.60
2018-12-14T12:56:53.944Z,1.20
2018-12-14T12:59:20.802Z,1.10
2018-12-14T13:01:48.344Z,1.27
2018-12-14T13:04:15.203Z,1.13
2018-12-14T13:06:42.028Z,1.33
2018-12-14T13:09:09.686Z,1.50
2018-12-14T13:11:36.490Z,1.20
2018-12-14T13:14:03.310Z,1.10
2018-12-14T13:16:30.777Z,1.27
2018-12-14T13:18:57.473Z,1.20
2018-12-14T13:21:24.186Z,1.20
2018-12-14T13:23:50.906Z,0.97
2018-12-14T13:26:17.663Z,1.47
2018-12-14T13:28:44.394Z,1.30
2018-12-14T13:31:12.161Z,1.53
2018-12-14T13:33:39.069Z,1.27
2018-12-14T13:36:06.756Z,1.17
2018-12-14T13:38:34.648Z,1.30
2018-12-14T13:41:02.092Z,1.20
2018-12-14T13:43:28.848Z,1.00
2018-12-14T13:45:55.626Z,1.20
2018-12-14T13:48:23.134Z,1.20
2018-12-14T13:50:49.948Z,1.13
2018-12-14T13:53:17.403Z,1.10
2018-12-14T13:55:44.111Z,1.30
2018-12-14T13:58:10.776Z,1.37
2018-12-14T14:00:37.541Z,1.00
2018-12-14T14:03:04.333Z,1.00
2018-12-14T14:05:31.031Z,1.23
2018-12-14T14:07:57.761Z,1.13
2018-12-14T14:10:24.499Z,1.10
2018-12-14T14:12:51.175Z,1.10
2018-12-14T14:15:20.866Z,1.10
2018-12-14T14:17:44.710Z,1.10
2018-12-14T14:20:11.425Z,1.10
2018-12-14T14:22:38.273Z,1.23
2018-12-14T14:25:05.736Z,1.23
2018-12-14T14:27:32.431Z,1.10
2018-12-14T14:29:59.165Z,1.20
2018-12-14T14:32:25.834Z,0.97
2018-12-14T14:34:52.528Z,1.30
2018-12-14T14:37:19.236Z,1.20
2018-12-14T14:39:45.927Z,1.17
2018-12-14T14:42:12.618Z,1.27
2018-12-14T14:44:40.105Z,1.13
2018-12-14T14:47:06.791Z,1.43
2018-12-14T14:49:33.483Z,1.20
2018-12-14T14:52:00.227Z,1.23
2018-12-14T14:54:27.755Z,1.10
2018-12-14T14:56:55.178Z,1.17
2018-12-14T14:59:21.896Z,1.33
2018-12-14T15:01:48.635Z,1.20
2018-12-14T15:04:15.925Z,1.20
2018-12-14T15:06:42.858Z,1.00
2018-12-14T15:09:09.630Z,1.00
2018-12-14T15:11:37.141Z,1.10
2018-12-14T15:14:03.814Z,1.03
2018-12-14T15:16:30.487Z,1.13
2018-12-14T15:18:57.279Z,1.20
2018-12-14T15:21:23.934Z,1.20
2018-12-14T15:23:50.598Z,1.10
2018-12-14T15:26:17.362Z,1.20
2018-12-14T15:28:44.024Z,1.30
2018-12-14T15:31:10.710Z,1.07
2018-12-14T15:33:38.171Z,1.37
2018-12-14T15:36:04.877Z,1.30
2018-12-14T15:38:31.572Z,1.20
2018-12-14T15:40:58.338Z,1.20
2018-12-14T15:43:25.016Z,1.00
2018-12-14T15:45:51.693Z,1.10
2018-12-14T15:48:18.493Z,1.27
2018-12-14T15:50:45.937Z,1.30
2018-12-14T15:53:12.609Z,1.17
2018-12-14T15:55:40.080Z,1.23
2018-12-14T15:58:06.792Z,1.00
2018-12-14T16:00:34.276Z,1.20
2018-12-14T16:03:01.063Z,1.33
2018-12-14T16:05:27.768Z,1.17
2018-12-14T16:07:54.541Z,1.10
2018-12-14T16:10:21.276Z,1.20
2018-12-14T16:12:47.983Z,1.23
2018-12-14T16:15:19.977Z,1.20
2018-12-14T16:17:41.479Z,1.87
2018-12-14T16:20:08.310Z,3.17
2018-12-14T16:22:35.121Z,2.77
2018-12-14T16:25:02.051Z,3.00
2018-12-14T16:27:28.767Z,2.00
2018-12-14T16:29:55.581Z,2.13
2018-12-14T16:32:22.230Z,2.00
2018-12-14T16:34:48.933Z,2.10
2018-12-14T16:37:15.727Z,1.80
2018-12-14T16:39:42.420Z,1.90
2018-12-14T16:42:09.105Z,2.60
2018-12-14T16:44:35.845Z,2.30
2018-12-14T16:47:02.519Z,2.30
2018-12-14T16:49:29.200Z,2.37
2018-12-14T16:51:55.948Z,2.47
2018-12-14T16:54:22.626Z,2.60
2018-12-14T16:56:49.319Z,2.67
2018-12-14T16:59:16.051Z,2.63
2018-12-14T17:01:42.833Z,3.30
2018-12-14T17:04:10.270Z,2.93
2018-12-14T17:06:52.022Z,2.87
2018-12-14T17:09:18.706Z,2.80
2018-12-14T17:11:45.445Z,2.67
2018-12-14T17:14:12.208Z,2.90
2018-12-14T17:16:38.945Z,3.10
2018-12-14T17:19:05.702Z,2.93
2018-12-14T17:21:33.178Z,2.83
2018-12-14T17:24:00.614Z,3.50
2018-12-14T17:26:28.101Z,3.30
2018-12-14T17:28:54.791Z,3.27
2018-12-14T17:31:21.470Z,3.10
2018-12-14T17:33:48.954Z,3.00
2018-12-14T17:36:15.648Z,3.07
2018-12-14T17:38:42.335Z,2.80
2018-12-14T17:41:09.096Z,2.63
2018-12-14T17:43:35.812Z,2.30
2018-12-14T17:46:02.674Z,2.27
2018-12-14T17:48:29.415Z,2.40
2018-12-14T17:50:58.260Z,2.23
2018-12-14T17:53:25.012Z,2.23
2018-12-14T17:55:51.734Z,2.23
2018-12-14T17:58:19.217Z,2.33
2018-12-14T18:00:46.010Z,2.67
2018-12-14T18:03:12.838Z,2.30
2018-12-14T18:05:39.585Z,2.20
2018-12-14T18:08:06.243Z,2.10
2018-12-14T18:10:32.982Z,2.43
2018-12-14T18:12:59.670Z,2.20
2018-12-14T18:15:26.394Z,2.30
2018-12-14T18:17:53.956Z,2.90
2018-12-14T18:20:20.650Z,2.70
2018-12-14T18:22:47.381Z,3.20
2018-12-14T18:25:14.221Z,2.80
2018-12-14T18:27:40.913Z,2.30
2018-12-14T18:30:07.648Z,2.10
2018-12-14T18:32:35.281Z,2.40
2018-12-14T18:35:02.309Z,2.30
2018-12-14T18:37:29.755Z,2.13
2018-12-14T18:39:56.559Z,1.97
2018-12-14T18:42:23.992Z,2.23
2018-12-14T18:44:50.683Z,2.20
2018-12-14T18:47:17.382Z,2.10
2018-12-14T18:49:44.841Z,2.50
2018-12-14T18:52:12.328Z,2.23
2018-12-14T18:54:39.137Z,2.80
2018-12-14T18:57:06.607Z,2.83
2018-12-14T18:59:33.409Z,2.33
2018-12-14T19:02:00.280Z,2.30
2018-12-14T19:04:27.740Z,2.30
2018-12-14T19:06:55.342Z,1.93
2018-12-14T19:09:22.085Z,2.03
2018-12-14T19:11:48.879Z,1.97
2018-12-14T19:14:15.658Z,2.00
2018-12-14T19:16:42.472Z,1.70
2018-12-14T19:19:09.236Z,2.10
2018-12-14T19:21:36.062Z,1.90
2018-12-14T19:24:03.471Z,2.13
2018-12-14T19:26:30.140Z,2.10
2018-12-14T19:28:57.637Z,2.03
2018-12-14T19:31:24.332Z,2.30
2018-12-14T19:33:51.768Z,1.87
2018-12-14T19:36:18.521Z,1.90
2018-12-14T19:38:45.228Z,2.17
2018-12-14T19:41:11.918Z,1.97
2018-12-14T19:43:39.428Z,2.10
2018-12-14T19:46:06.600Z,1.93
2018-12-14T19:48:32.923Z,1.73
2018-12-14T19:50:59.751Z,1.50
2018-12-14T19:53:26.563Z,1.53
2018-12-14T19:55:53.270Z,2.10
2018-12-14T19:58:19.996Z,2.03
2018-12-14T20:00:46.671Z,1.60
2018-12-14T20:03:13.390Z,1.97
2018-12-14T20:05:40.138Z,2.10
2018-12-14T20:08:06.878Z,1.80
2018-12-14T20:10:34.349Z,1.80
2018-12-14T20:13:01.851Z,1.60
2018-12-14T20:15:28.641Z,1.50
2018-12-14T20:17:56.051Z,2.00
2018-12-14T20:20:22.800Z,1.37
2018-12-14T20:22:49.495Z,1.80
2018-12-14T20:25:16.927Z,1.53
2018-12-14T20:27:44.396Z,1.43
2018-12-14T20:30:11.256Z,1.50
2018-12-14T20:32:38.130Z,1.33
2018-12-14T20:35:06.170Z,1.60
2018-12-14T20:37:34.193Z,1.47
2018-12-14T20:40:01.674Z,2.00
2018-12-14T20:42:28.516Z,1.87
2018-12-14T20:44:56.095Z,1.63
2018-12-14T20:47:22.828Z,1.60
2018-12-14T20:49:49.545Z,1.60
2018-12-14T20:52:17.067Z,1.63
2018-12-14T20:54:44.628Z,1.40
2018-12-14T20:57:11.341Z,1.60
2018-12-14T20:59:38.188Z,1.80
2018-12-14T21:02:04.960Z,1.80
2018-12-14T21:04:31.625Z,1.53
2018-12-14T21:06:58.357Z,1.50
2018-12-14T21:09:25.141Z,1.70
2018-12-14T21:11:51.899Z,1.77
2018-12-14T21:14:18.646Z,2.07
2018-12-14T21:16:45.469Z,1.80
2018-12-14T21:19:12.519Z,1.53
2018-12-14T21:21:39.242Z,2.00
2018-12-14T21:24:05.953Z,1.80
2018-12-14T21:26:32.735Z,1.93
2018-12-14T21:28:59.535Z,1.90
2018-12-14T21:31:26.327Z,2.10
2018-12-14T21:33:53.076Z,2.30
2018-12-14T21:36:19.810Z,1.87
2018-12-14T21:38:46.484Z,2.00
2018-12-14T21:41:13.328Z,1.90
2018-12-14T21:43:40.029Z,2.33
2018-12-14T21:46:06.747Z,2.07
2018-12-14T21:48:34.230Z,1.80
2018-12-14T21:51:01.009Z,1.97
2018-12-14T21:53:29.250Z,2.10
2018-12-14T21:55:56.025Z,2.40
2018-12-14T21:58:23.027Z,1.80
2018-12-14T22:00:49.747Z,1.90
2018-12-14T22:03:16.657Z,2.10
2018-12-14T22:05:43.319Z,1.90
2018-12-14T22:08:12.808Z,1.50
2018-12-14T22:10:44.106Z,2.00
2018-12-14T22:13:10.839Z,1.97
2018-12-14T22:15:37.548Z,2.00
2018-12-14T22:18:06.931Z,2.10
2018-12-14T22:20:33.874Z,2.00
2018-12-14T22:23:00.578Z,1.97
2018-12-14T22:25:27.366Z,2.07
2018-12-14T22:27:55.251Z,1.80
2018-12-14T22:30:23.014Z,2.00
2018-12-14T22:32:49.826Z,2.10
2018-12-14T22:35:16.618Z,2.30
2018-12-14T22:37:43.308Z,2.13
2018-12-14T22:40:10.462Z,2.07
2018-12-14T22:42:37.153Z,2.03
2018-12-14T22:45:04.862Z,2.23
2018-12-14T22:47:34.937Z,2.13
2018-12-14T22:50:04.634Z,2.07
2018-12-14T22:52:33.384Z,2.07
2018-12-14T22:55:00.346Z,2.07
2018-12-14T22:57:31.048Z,1.97
2018-12-14T22:59:57.751Z,1.80
2018-12-14T23:02:24.517Z,2.03
2018-12-14T23:04:51.220Z,1.67
2018-12-14T23:07:19.458Z,2.03
2018-12-14T23:09:48.311Z,2.00
2018-12-14T23:12:15.550Z,1.93
2018-12-14T23:14:42.276Z,2.20
2018-12-14T23:17:09.301Z,2.40
2018-12-14T23:19:36.961Z,2.13
2018-12-14T23:22:04.423Z,2.03
2018-12-14T23:24:34.177Z,2.00
2018-12-14T23:27:02.908Z,1.90
2018-12-14T23:29:30.125Z,2.40
2018-12-14T23:31:58.984Z,2.27
2018-12-14T23:34:26.009Z,2.53
2018-12-14T23:36:54.744Z,2.03
2018-12-14T23:39:22.619Z,2.50
2018-12-14T23:41:50.494Z,1.77
2018-12-14T23:44:17.188Z,1.90
2018-12-14T23:46:44.662Z,1.93
2018-12-14T23:49:11.490Z,2.07
2018-12-14T23:51:39.507Z,1.93
2018-12-14T23:54:06.289Z,2.00
2018-12-14T23:56:34.055Z,1.90
2018-12-14T23:59:04.021Z,1.83
